sensor_id;sensor_type;location;lat;lon;timestamp;pressure;altitude;pressure_sealevel;temperature;humidity
65131;BME280;51709;54.912;8.316;2023-09-30T00:04:45;101837.22;;;17.03;68.15
65131;BME280;51709;54.912;8.316;2023-09-30T00:10:06;101841.66;;;17.04;68.01
65131;BME280;51709;54.912;8.316;2023-09-30T00:15:27;101855.41;;;17.04;68.17
65131;BME280;51709;54.912;8.316;2023-09-30T00:20:48;101862.94;;;17.02;67.99
65131;BME280;51709;54.912;8.316;2023-09-30T00:26:09;101860.88;;;17.04;68.00
65131;BME280;51709;54.912;8.316;2023-09-30T00:31:29;101861.75;;;17.05;67.96
65131;BME280;51709;54.912;8.316;2023-09-30T00:36:51;101875.66;;;17.03;68.31
65131;BME280;51709;54.912;8.316;2023-09-30T00:42:12;101856.25;;;17.05;68.47
65131;BME280;51709;54.912;8.316;2023-09-30T00:47:33;101866.38;;;17.04;68.07
65131;BME280;51709;54.912;8.316;2023-09-30T00:52:54;101866.38;;;17.04;68.12
65131;BME280;51709;54.912;8.316;2023-09-30T00:58:15;101865.38;;;17.05;68.60
65131;BME280;51709;54.912;8.316;2023-09-30T01:03:37;101874.44;;;17.06;68.59
65131;BME280;51709;54.912;8.316;2023-09-30T01:08:58;101871.88;;;17.04;68.41
65131;BME280;51709;54.912;8.316;2023-09-30T01:14:27;101867.59;;;17.02;67.42
65131;BME280;51709;54.912;8.316;2023-09-30T01:19:48;101872.22;;;17.01;66.85
65131;BME280;51709;54.912;8.316;2023-09-30T01:25:11;101898.47;;;17.04;66.58
65131;BME280;51709;54.912;8.316;2023-09-30T01:30:31;101866.75;;;17.01;66.07
65131;BME280;51709;54.912;8.316;2023-09-30T01:35:54;101883.03;;;17.03;66.16
65131;BME280;51709;54.912;8.316;2023-09-30T01:41:15;101872.22;;;17.01;66.19
65131;BME280;51709;54.912;8.316;2023-09-30T01:46:37;101874.81;;;17.03;66.66
65131;BME280;51709;54.912;8.316;2023-09-30T01:52:00;101896.59;;;17.04;66.73
65131;BME280;51709;54.912;8.316;2023-09-30T01:57:20;101896.75;;;17.03;66.42
65131;BME280;51709;54.912;8.316;2023-09-30T02:02:41;101880.66;;;17.00;66.24
65131;BME280;51709;54.912;8.316;2023-09-30T02:08:03;101880.47;;;17.01;66.08
65131;BME280;51709;54.912;8.316;2023-09-30T02:13:26;101881.34;;;17.02;65.93
65131;BME280;51709;54.912;8.316;2023-09-30T02:18:47;101891.09;;;17.04;65.96
65131;BME280;51709;54.912;8.316;2023-09-30T02:24:11;101889.22;;;17.05;66.20
65131;BME280;51709;54.912;8.316;2023-09-30T02:29:34;101862.63;;;17.05;66.19
65131;BME280;51709;54.912;8.316;2023-09-30T02:34:54;101905.69;;;17.05;66.10
65131;BME280;51709;54.912;8.316;2023-09-30T02:40:15;101888.00;;;17.07;65.80
65131;BME280;51709;54.912;8.316;2023-09-30T02:45:37;101869.44;;;17.09;65.99
65131;BME280;51709;54.912;8.316;2023-09-30T02:50:58;101885.94;;;17.09;66.19
65131;BME280;51709;54.912;8.316;2023-09-30T02:56:19;101891.41;;;17.09;66.28
65131;BME280;51709;54.912;8.316;2023-09-30T03:01:39;101868.75;;;17.07;66.86
65131;BME280;51709;54.912;8.316;2023-09-30T03:07:01;101888.34;;;17.04;66.49
65131;BME280;51709;54.912;8.316;2023-09-30T03:12:22;101893.16;;;17.02;66.09
65131;BME280;51709;54.912;8.316;2023-09-30T03:17:43;101871.19;;;17.02;66.31
65131;BME280;51709;54.912;8.316;2023-09-30T03:23:04;101886.97;;;17.00;66.10
65131;BME280;51709;54.912;8.316;2023-09-30T03:28:26;101908.13;;;17.00;66.35
65131;BME280;51709;54.912;8.316;2023-09-30T03:33:47;101909.13;;;16.99;66.92
65131;BME280;51709;54.912;8.316;2023-09-30T03:39:08;101912.75;;;16.99;67.24
65131;BME280;51709;54.912;8.316;2023-09-30T03:44:29;101903.81;;;16.97;67.61
65131;BME280;51709;54.912;8.316;2023-09-30T03:49:49;101901.25;;;16.96;67.96
65131;BME280;51709;54.912;8.316;2023-09-30T03:55:11;101894.88;;;16.95;67.80
65131;BME280;51709;54.912;8.316;2023-09-30T04:00:34;101889.41;;;16.95;68.17
65131;BME280;51709;54.912;8.316;2023-09-30T04:05:56;101896.94;;;16.93;68.34
65131;BME280;51709;54.912;8.316;2023-09-30T04:11:17;101897.31;;;16.90;68.43
65131;BME280;51709;54.912;8.316;2023-09-30T04:16:39;101898.34;;;16.89;68.54
65131;BME280;51709;54.912;8.316;2023-09-30T04:22:01;101906.59;;;16.89;68.30
65131;BME280;51709;54.912;8.316;2023-09-30T04:27:22;101904.84;;;16.88;68.28
65131;BME280;51709;54.912;8.316;2023-09-30T04:32:43;101928.69;;;16.88;68.56
65131;BME280;51709;54.912;8.316;2023-09-30T04:38:04;101925.13;;;16.87;68.76
65131;BME280;51709;54.912;8.316;2023-09-30T04:43:25;101942.59;;;16.86;68.88
65131;BME280;51709;54.912;8.316;2023-09-30T04:48:49;101946.03;;;16.88;69.02
65131;BME280;51709;54.912;8.316;2023-09-30T04:54:12;101947.09;;;16.87;69.21
65131;BME280;51709;54.912;8.316;2023-09-30T04:59:33;101954.28;;;16.88;69.48
65131;BME280;51709;54.912;8.316;2023-09-30T05:04:54;101965.25;;;16.88;69.64
65131;BME280;51709;54.912;8.316;2023-09-30T05:10:14;101941.59;;;16.87;69.94
65131;BME280;51709;54.912;8.316;2023-09-30T05:15:37;101957.56;;;16.84;69.13
65131;BME280;51709;54.912;8.316;2023-09-30T05:20:58;101967.66;;;16.83;69.22
65131;BME280;51709;54.912;8.316;2023-09-30T05:26:19;101981.56;;;16.82;69.32
65131;BME280;51709;54.912;8.316;2023-09-30T05:31:39;101970.75;;;16.80;69.30
65131;BME280;51709;54.912;8.316;2023-09-30T05:37:00;101979.00;;;16.80;69.60
65131;BME280;51709;54.912;8.316;2023-09-30T05:42:22;101998.88;;;16.82;69.54
65131;BME280;51709;54.912;8.316;2023-09-30T05:47:43;101997.16;;;16.81;68.47
65131;BME280;51709;54.912;8.316;2023-09-30T05:53:14;101971.41;;;16.82;68.56
65131;BME280;51709;54.912;8.316;2023-09-30T05:58:35;101990.81;;;16.81;68.25
65131;BME280;51709;54.912;8.316;2023-09-30T06:03:57;102025.81;;;16.79;68.13
65131;BME280;51709;54.912;8.316;2023-09-30T06:09:18;101996.47;;;16.79;67.92
65131;BME280;51709;54.912;8.316;2023-09-30T06:14:39;102033.91;;;16.80;68.10
65131;BME280;51709;54.912;8.316;2023-09-30T06:20:06;102010.03;;;16.81;68.17
65131;BME280;51709;54.912;8.316;2023-09-30T06:25:33;102032.50;;;16.84;68.23
65131;BME280;51709;54.912;8.316;2023-09-30T06:30:54;102030.97;;;16.90;68.57
65131;BME280;51709;54.912;8.316;2023-09-30T06:36:17;102025.31;;;16.91;68.27
65131;BME280;51709;54.912;8.316;2023-09-30T06:41:37;102043.16;;;16.95;68.44
65131;BME280;51709;54.912;8.316;2023-09-30T06:47:03;102041.63;;;17.01;68.10
65131;BME280;51709;54.912;8.316;2023-09-30T06:52:23;102053.81;;;17.06;68.14
65131;BME280;51709;54.912;8.316;2023-09-30T06:57:44;102040.09;;;17.06;68.06
65131;BME280;51709;54.912;8.316;2023-09-30T07:03:08;102073.91;;;17.07;67.87
65131;BME280;51709;54.912;8.316;2023-09-30T07:08:30;102057.94;;;17.10;67.48
65131;BME280;51709;54.912;8.316;2023-09-30T07:13:51;102063.09;;;17.13;67.06
65131;BME280;51709;54.912;8.316;2023-09-30T07:19:12;102089.19;;;17.25;66.94
65131;BME280;51709;54.912;8.316;2023-09-30T07:24:33;102071.16;;;17.31;66.18
65131;BME280;51709;54.912;8.316;2023-09-30T07:29:53;102085.59;;;17.33;65.81
65131;BME280;51709;54.912;8.316;2023-09-30T07:35:14;102090.22;;;17.32;65.54
65131;BME280;51709;54.912;8.316;2023-09-30T07:40:39;102094.50;;;17.35;65.11
65131;BME280;51709;54.912;8.316;2023-09-30T07:46:06;102099.34;;;17.41;65.28
65131;BME280;51709;54.912;8.316;2023-09-30T07:51:27;102115.16;;;17.47;65.47
65131;BME280;51709;54.912;8.316;2023-09-30T07:56:49;102110.16;;;17.50;65.57
65131;BME280;51709;54.912;8.316;2023-09-30T08:02:10;102115.00;;;17.48;66.19
65131;BME280;51709;54.912;8.316;2023-09-30T08:07:31;102131.31;;;17.50;66.12
65131;BME280;51709;54.912;8.316;2023-09-30T08:12:52;102126.34;;;17.53;65.38
65131;BME280;51709;54.912;8.316;2023-09-30T08:18:13;102144.03;;;17.59;65.53
65131;BME280;51709;54.912;8.316;2023-09-30T08:23:34;102142.81;;;17.69;65.22
65131;BME280;51709;54.912;8.316;2023-09-30T08:28:55;102120.28;;;17.82;65.23
65131;BME280;51709;54.912;8.316;2023-09-30T08:34:16;102153.13;;;17.92;65.25
65131;BME280;51709;54.912;8.316;2023-09-30T08:39:39;102138.97;;;18.03;65.07
65131;BME280;51709;54.912;8.316;2023-09-30T08:45:08;102150.97;;;18.10;64.77
65131;BME280;51709;54.912;8.316;2023-09-30T08:50:31;102140.72;;;18.04;64.79
65131;BME280;51709;54.912;8.316;2023-09-30T08:55:55;102167.56;;;17.86;65.55
65131;BME280;51709;54.912;8.316;2023-09-30T09:01:16;102142.97;;;17.60;66.42
65131;BME280;51709;54.912;8.316;2023-09-30T09:06:37;102152.78;;;17.54;66.95
65131;BME280;51709;54.912;8.316;2023-09-30T09:11:58;102164.97;;;17.60;66.91
65131;BME280;51709;54.912;8.316;2023-09-30T09:17:19;102185.78;;;17.62;66.51
65131;BME280;51709;54.912;8.316;2023-09-30T09:22:41;102189.53;;;17.61;66.34
65131;BME280;51709;54.912;8.316;2023-09-30T09:28:02;102193.00;;;17.71;66.76
65131;BME280;51709;54.912;8.316;2023-09-30T09:33:35;102186.94;;;18.08;66.55
65131;BME280;51709;54.912;8.316;2023-09-30T09:38:57;102191.34;;;18.49;66.15
65131;BME280;51709;54.912;8.316;2023-09-30T09:44:21;102184.00;;;18.81;65.07
65131;BME280;51709;54.912;8.316;2023-09-30T09:49:42;102184.94;;;18.65;64.57
65131;BME280;51709;54.912;8.316;2023-09-30T09:55:03;102191.75;;;18.77;64.25
65131;BME280;51709;54.912;8.316;2023-09-30T10:00:25;102196.31;;;19.31;62.39
65131;BME280;51709;54.912;8.316;2023-09-30T10:05:46;102192.06;;;19.89;60.38
65131;BME280;51709;54.912;8.316;2023-09-30T10:11:08;102190.09;;;20.20;59.66
65131;BME280;51709;54.912;8.316;2023-09-30T10:16:47;102202.22;;;20.11;59.42
65131;BME280;51709;54.912;8.316;2023-09-30T10:27:45;102222.03;;;20.14;59.04
65131;BME280;51709;54.912;8.316;2023-09-30T10:38:37;102230.38;;;19.30;59.63
65131;BME280;51709;54.912;8.316;2023-09-30T10:49:49;102244.13;;;18.69;60.90
65131;BME280;51709;54.912;8.316;2023-09-30T10:55:10;102243.03;;;18.78;61.95
65131;BME280;51709;54.912;8.316;2023-09-30T11:00:31;102248.41;;;18.80;62.17
65131;BME280;51709;54.912;8.316;2023-09-30T11:05:52;102262.91;;;19.04;62.32
65131;BME280;51709;54.912;8.316;2023-09-30T11:11:41;102241.75;;;19.66;62.43
65131;BME280;51709;54.912;8.316;2023-09-30T11:17:09;102240.09;;;20.39;60.75
65131;BME280;51709;54.912;8.316;2023-09-30T11:22:30;102253.75;;;20.70;59.63
65131;BME280;51709;54.912;8.316;2023-09-30T11:27:51;102248.97;;;20.93;59.42
65131;BME280;51709;54.912;8.316;2023-09-30T11:33:12;102231.81;;;21.12;58.29
65131;BME280;51709;54.912;8.316;2023-09-30T11:38:34;102237.66;;;21.03;57.49
65131;BME280;51709;54.912;8.316;2023-09-30T11:44:03;102241.03;;;21.19;57.19
65131;BME280;51709;54.912;8.316;2023-09-30T11:54:55;102251.38;;;21.46;56.72
65131;BME280;51709;54.912;8.316;2023-09-30T12:00:17;102238.19;;;21.48;56.50
65131;BME280;51709;54.912;8.316;2023-09-30T12:05:38;102240.81;;;21.35;55.23
65131;BME280;51709;54.912;8.316;2023-09-30T12:10:59;102233.63;;;21.20;54.93
65131;BME280;51709;54.912;8.316;2023-09-30T12:16:20;102249.25;;;20.83;55.32
65131;BME280;51709;54.912;8.316;2023-09-30T12:21:41;102231.81;;;20.54;55.38
65131;BME280;51709;54.912;8.316;2023-09-30T12:27:02;102232.09;;;20.59;56.12
65131;BME280;51709;54.912;8.316;2023-09-30T12:32:23;102225.16;;;20.63;56.32
65131;BME280;51709;54.912;8.316;2023-09-30T12:37:44;102223.53;;;20.83;56.62
65131;BME280;51709;54.912;8.316;2023-09-30T12:50:56;102266.09;;;20.45;56.25
65131;BME280;51709;54.912;8.316;2023-09-30T12:56:17;102238.16;;;20.03;56.45
65131;BME280;51709;54.912;8.316;2023-09-30T13:01:37;102219.31;;;19.69;56.93
65131;BME280;51709;54.912;8.316;2023-09-30T13:06:59;102231.06;;;19.40;57.63
65131;BME280;51709;54.912;8.316;2023-09-30T13:12:20;102234.41;;;19.20;58.27
65131;BME280;51709;54.912;8.316;2023-09-30T13:17:44;102230.53;;;19.06;58.52
65131;BME280;51709;54.912;8.316;2023-09-30T13:23:05;102247.44;;;19.03;58.94
65131;BME280;51709;54.912;8.316;2023-09-30T13:28:27;102230.97;;;19.18;59.02
65131;BME280;51709;54.912;8.316;2023-09-30T13:33:48;102243.72;;;19.19;59.25
65131;BME280;51709;54.912;8.316;2023-09-30T13:39:09;102244.31;;;19.06;59.66
65131;BME280;51709;54.912;8.316;2023-09-30T13:44:33;102244.72;;;18.87;59.97
65131;BME280;51709;54.912;8.316;2023-09-30T13:49:54;102236.19;;;18.74;60.35
65131;BME280;51709;54.912;8.316;2023-09-30T13:55:15;102232.75;;;18.64;60.57
65131;BME280;51709;54.912;8.316;2023-09-30T14:00:39;102226.59;;;18.54;60.92
65131;BME280;51709;54.912;8.316;2023-09-30T14:06:00;102223.53;;;18.49;61.11
65131;BME280;51709;54.912;8.316;2023-09-30T14:11:21;102241.06;;;18.48;61.15
65131;BME280;51709;54.912;8.316;2023-09-30T14:16:41;102242.97;;;18.47;61.25
65131;BME280;51709;54.912;8.316;2023-09-30T14:22:03;102228.34;;;18.47;61.38
65131;BME280;51709;54.912;8.316;2023-09-30T14:27:29;102247.94;;;18.44;61.79
65131;BME280;51709;54.912;8.316;2023-09-30T14:32:50;102245.19;;;18.36;61.51
65131;BME280;51709;54.912;8.316;2023-09-30T14:38:11;102241.94;;;18.24;61.56
65131;BME280;51709;54.912;8.316;2023-09-30T14:43:35;102231.47;;;18.20;62.16
65131;BME280;51709;54.912;8.316;2023-09-30T14:48:55;102227.19;;;18.09;61.86
65131;BME280;51709;54.912;8.316;2023-09-30T14:54:17;102229.09;;;18.01;62.25
65131;BME280;51709;54.912;8.316;2023-09-30T14:59:37;102222.88;;;17.91;62.41
65131;BME280;51709;54.912;8.316;2023-09-30T15:04:58;102205.00;;;17.87;62.39
65131;BME280;51709;54.912;8.316;2023-09-30T15:10:19;102187.16;;;17.83;62.81
65131;BME280;51709;54.912;8.316;2023-09-30T15:15:40;102192.63;;;17.74;63.02
65131;BME280;51709;54.912;8.316;2023-09-30T15:21:02;102177.88;;;17.67;63.18
65131;BME280;51709;54.912;8.316;2023-09-30T15:26:24;102187.31;;;17.65;63.26
65131;BME280;51709;54.912;8.316;2023-09-30T15:31:44;102191.59;;;17.59;63.19
65131;BME280;51709;54.912;8.316;2023-09-30T15:37:08;102190.38;;;17.54;63.03
65131;BME280;51709;54.912;8.316;2023-09-30T15:42:29;102193.84;;;17.48;62.98
65131;BME280;51709;54.912;8.316;2023-09-30T15:47:50;102216.63;;;17.40;62.66
65131;BME280;51709;54.912;8.316;2023-09-30T15:53:12;102210.09;;;17.41;63.06
65131;BME280;51709;54.912;8.316;2023-09-30T15:58:33;102220.03;;;17.34;63.07
65131;BME280;51709;54.912;8.316;2023-09-30T16:03:54;102206.31;;;17.26;63.44
65131;BME280;51709;54.912;8.316;2023-09-30T16:09:15;102219.34;;;17.24;63.56
65131;BME280;51709;54.912;8.316;2023-09-30T16:14:36;102219.69;;;17.21;63.93
65131;BME280;51709;54.912;8.316;2023-09-30T16:19:57;102221.22;;;17.16;63.81
65131;BME280;51709;54.912;8.316;2023-09-30T16:25:18;102217.97;;;17.12;63.94
65131;BME280;51709;54.912;8.316;2023-09-30T16:30:39;102221.88;;;17.10;64.19
65131;BME280;51709;54.912;8.316;2023-09-30T16:36:03;102226.16;;;17.04;64.48
65131;BME280;51709;54.912;8.316;2023-09-30T16:41:24;102233.00;;;17.00;65.07
65131;BME280;51709;54.912;8.316;2023-09-30T16:46:45;102243.28;;;16.98;64.84
65131;BME280;51709;54.912;8.316;2023-09-30T16:52:05;102237.13;;;16.96;65.17
65131;BME280;51709;54.912;8.316;2023-09-30T16:57:26;102228.19;;;16.94;65.09
65131;BME280;51709;54.912;8.316;2023-09-30T17:02:47;102234.00;;;16.91;65.35
65131;BME280;51709;54.912;8.316;2023-09-30T17:08:08;102238.81;;;16.89;65.53
65131;BME280;51709;54.912;8.316;2023-09-30T17:13:29;102220.59;;;16.88;65.85
65131;BME280;51709;54.912;8.316;2023-09-30T17:18:49;102224.53;;;16.86;66.00
65131;BME280;51709;54.912;8.316;2023-09-30T17:24:10;102218.19;;;16.85;65.80
65131;BME280;51709;54.912;8.316;2023-09-30T17:29:31;102212.88;;;16.84;66.27
65131;BME280;51709;54.912;8.316;2023-09-30T17:34:52;102212.19;;;16.82;66.30
65131;BME280;51709;54.912;8.316;2023-09-30T17:40:13;102204.13;;;16.80;66.25
65131;BME280;51709;54.912;8.316;2023-09-30T17:45:33;102226.22;;;16.79;66.29
65131;BME280;51709;54.912;8.316;2023-09-30T17:50:54;102220.91;;;16.77;66.22
65131;BME280;51709;54.912;8.316;2023-09-30T17:56:16;102216.44;;;16.76;66.19
65131;BME280;51709;54.912;8.316;2023-09-30T18:01:38;102214.88;;;16.73;66.48
65131;BME280;51709;54.912;8.316;2023-09-30T18:06:58;102224.69;;;16.76;66.15
65131;BME280;51709;54.912;8.316;2023-09-30T18:12:20;102217.44;;;16.75;66.25
65131;BME280;51709;54.912;8.316;2023-09-30T18:17:40;102210.25;;;16.74;66.65
65131;BME280;51709;54.912;8.316;2023-09-30T18:23:10;102220.19;;;16.75;66.89
65131;BME280;51709;54.912;8.316;2023-09-30T18:28:31;102215.75;;;16.74;67.16
65131;BME280;51709;54.912;8.316;2023-09-30T18:33:52;102219.50;;;16.73;67.02
65131;BME280;51709;54.912;8.316;2023-09-30T18:39:13;102213.34;;;16.71;66.84
65131;BME280;51709;54.912;8.316;2023-09-30T18:44:45;102216.91;;;16.71;67.07
65131;BME280;51709;54.912;8.316;2023-09-30T18:50:06;102234.59;;;16.69;67.10
65131;BME280;51709;54.912;8.316;2023-09-30T18:55:27;102218.13;;;16.69;67.04
65131;BME280;51709;54.912;8.316;2023-09-30T19:00:48;102240.09;;;16.69;66.81
65131;BME280;51709;54.912;8.316;2023-09-30T19:06:08;102229.09;;;16.69;66.82
65131;BME280;51709;54.912;8.316;2023-09-30T19:11:29;102224.63;;;16.68;66.61
65131;BME280;51709;54.912;8.316;2023-09-30T19:16:51;102231.16;;;16.67;66.50
65131;BME280;51709;54.912;8.316;2023-09-30T19:22:11;102221.88;;;16.68;66.64
65131;BME280;51709;54.912;8.316;2023-09-30T19:27:32;102212.63;;;16.69;66.67
65131;BME280;51709;54.912;8.316;2023-09-30T19:32:53;102216.38;;;16.68;66.79
65131;BME280;51709;54.912;8.316;2023-09-30T19:38:14;102216.38;;;16.68;66.57
65131;BME280;51709;54.912;8.316;2023-09-30T19:43:34;102205.41;;;16.68;66.29
65131;BME280;51709;54.912;8.316;2023-09-30T19:48:55;102210.06;;;16.67;65.94
65131;BME280;51709;54.912;8.316;2023-09-30T19:54:16;102202.66;;;16.68;65.84
65131;BME280;51709;54.912;8.316;2023-09-30T19:59:39;102205.41;;;16.68;66.00
65131;BME280;51709;54.912;8.316;2023-09-30T20:05:00;102221.03;;;16.67;66.08
65131;BME280;51709;54.912;8.316;2023-09-30T20:10:21;102208.16;;;16.68;66.38
65131;BME280;51709;54.912;8.316;2023-09-30T20:15:43;102212.63;;;16.69;66.21
65131;BME280;51709;54.912;8.316;2023-09-30T20:21:03;102200.63;;;16.70;66.42
65131;BME280;51709;54.912;8.316;2023-09-30T20:26:26;102195.84;;;16.72;66.63
65131;BME280;51709;54.912;8.316;2023-09-30T20:31:47;102203.19;;;16.71;66.62
65131;BME280;51709;54.912;8.316;2023-09-30T20:37:08;102187.94;;;16.69;66.76
65131;BME280;51709;54.912;8.316;2023-09-30T20:42:28;102188.78;;;16.69;66.99
65131;BME280;51709;54.912;8.316;2023-09-30T20:47:49;102181.75;;;16.67;67.06
65131;BME280;51709;54.912;8.316;2023-09-30T20:53:10;102185.38;;;16.67;67.38
65131;BME280;51709;54.912;8.316;2023-09-30T20:58:33;102182.75;;;16.66;67.49
65131;BME280;51709;54.912;8.316;2023-09-30T21:03:53;102179.00;;;16.67;67.78
65131;BME280;51709;54.912;8.316;2023-09-30T21:09:14;102180.00;;;16.66;67.83
65131;BME280;51709;54.912;8.316;2023-09-30T21:14:35;102180.00;;;16.66;68.05
65131;BME280;51709;54.912;8.316;2023-09-30T21:19:55;102188.25;;;16.66;68.27
65131;BME280;51709;54.912;8.316;2023-09-30T21:25:16;102184.66;;;16.65;68.56
65131;BME280;51709;54.912;8.316;2023-09-30T21:30:37;102168.19;;;16.65;68.72
65131;BME280;51709;54.912;8.316;2023-09-30T21:35:58;102175.38;;;16.66;68.72
65131;BME280;51709;54.912;8.316;2023-09-30T21:41:19;102159.78;;;16.67;68.77
65131;BME280;51709;54.912;8.316;2023-09-30T21:46:40;102171.47;;;16.69;68.79
65131;BME280;51709;54.912;8.316;2023-09-30T21:52:00;102175.91;;;16.70;68.68
65131;BME280;51709;54.912;8.316;2023-09-30T21:57:21;102170.44;;;16.70;69.08
65131;BME280;51709;54.912;8.316;2023-09-30T22:02:42;102172.16;;;16.71;69.02
65131;BME280;51709;54.912;8.316;2023-09-30T22:08:03;102179.38;;;16.72;69.22
65131;BME280;51709;54.912;8.316;2023-09-30T22:13:25;102191.03;;;16.74;69.09
65131;BME280;51709;54.912;8.316;2023-09-30T22:18:46;102189.16;;;16.75;69.45
65131;BME280;51709;54.912;8.316;2023-09-30T22:24:07;102186.41;;;16.75;69.39
65131;BME280;51709;54.912;8.316;2023-09-30T22:29:28;102166.16;;;16.76;69.77
65131;BME280;51709;54.912;8.316;2023-09-30T22:34:49;102170.59;;;16.77;69.77
65131;BME280;51709;54.912;8.316;2023-09-30T22:40:10;102157.75;;;16.77;69.88
65131;BME280;51709;54.912;8.316;2023-09-30T22:45:30;102159.63;;;16.77;70.02
65131;BME280;51709;54.912;8.316;2023-09-30T22:50:51;102152.25;;;16.77;69.92
65131;BME280;51709;54.912;8.316;2023-09-30T22:56:16;102147.81;;;16.76;70.21
65131;BME280;51709;54.912;8.316;2023-09-30T23:01:38;102147.81;;;16.76;70.24
65131;BME280;51709;54.912;8.316;2023-09-30T23:06:58;102154.00;;;16.78;70.07
65131;BME280;51709;54.912;8.316;2023-09-30T23:12:21;102142.16;;;16.78;69.96
65131;BME280;51709;54.912;8.316;2023-09-30T23:17:42;102121.75;;;16.80;70.06
65131;BME280;51709;54.912;8.316;2023-09-30T23:23:05;102117.97;;;16.81;70.27
65131;BME280;51709;54.912;8.316;2023-09-30T23:28:27;102115.91;;;16.83;69.98
65131;BME280;51709;54.912;8.316;2023-09-30T23:33:47;102112.47;;;16.81;70.00
65131;BME280;51709;54.912;8.316;2023-09-30T23:39:08;102110.78;;;16.80;69.66
65131;BME280;51709;54.912;8.316;2023-09-30T23:44:32;102115.41;;;16.80;69.75
65131;BME280;51709;54.912;8.316;2023-09-30T23:49:55;102110.78;;;16.80;69.57
65131;BME280;51709;54.912;8.316;2023-09-30T23:55:18;102099.78;;;16.80;69.19
